createdAt,value
2023-05-09T00:01:24.510Z,8.07
2023-05-09T00:03:51.625Z,7.03
2023-05-09T00:06:19.496Z,13.10
2023-05-09T00:08:45.987Z,11.32
2023-05-09T00:11:12.499Z,7.32
2023-05-09T00:13:39.190Z,8.35
2023-05-09T00:16:06.110Z,8.07
2023-05-09T00:18:33.990Z,9.30
2023-05-09T00:21:01.030Z,9.90
2023-05-09T00:23:27.508Z,8.20
2023-05-09T00:25:54.471Z,9.55
2023-05-09T00:28:20.930Z,10.23
2023-05-09T00:30:47.416Z,9.05
2023-05-09T00:33:13.878Z,8.13
2023-05-09T00:35:40.407Z,9.00
2023-05-09T00:38:06.870Z,9.75
2023-05-09T00:40:36.055Z,7.97
2023-05-09T00:43:02.638Z,11.13
2023-05-09T00:45:29.200Z,9.48
2023-05-09T00:47:59.204Z,7.30
2023-05-09T00:50:25.816Z,10.90
2023-05-09T00:52:52.314Z,9.38
2023-05-09T00:55:22.389Z,8.77
2023-05-09T00:57:51.826Z,8.88
2023-05-09T01:00:18.663Z,10.80
2023-05-09T01:02:50.881Z,6.75
2023-05-09T01:05:22.623Z,8.52
2023-05-09T01:08:21.642Z,7.25
2023-05-09T01:10:54.293Z,7.22
2023-05-09T01:13:30.184Z,8.00
2023-05-09T01:16:09.353Z,7.22
2023-05-09T01:18:45.765Z,16.30
2023-05-09T01:21:17.632Z,7.75
2023-05-09T01:23:44.221Z,9.93
2023-05-09T01:26:34.855Z,11.13
2023-05-09T01:29:22.490Z,9.23
2023-05-09T01:31:49.883Z,9.23
2023-05-09T01:34:18.432Z,9.52
2023-05-09T01:36:49.211Z,12.35
2023-05-09T01:39:18.081Z,8.50
2023-05-09T01:41:49.744Z,10.18
2023-05-09T01:44:17.674Z,9.43
2023-05-09T01:46:44.983Z,9.05
2023-05-09T01:49:12.134Z,11.13
2023-05-09T01:51:43.694Z,14.85
2023-05-09T01:54:12.007Z,14.35
2023-05-09T01:56:41.007Z,8.57
2023-05-09T01:59:07.933Z,10.77
2023-05-09T02:01:35.920Z,9.75
2023-05-09T02:06:54.657Z,11.43
2023-05-09T02:09:21.913Z,11.25
2023-05-09T02:11:48.454Z,10.90
2023-05-09T02:14:15.066Z,16.00
2023-05-09T02:16:41.981Z,9.65
2023-05-09T02:19:08.694Z,11.93
2023-05-09T02:21:35.741Z,12.57
2023-05-09T02:24:02.653Z,14.15
2023-05-09T02:26:29.614Z,10.75
2023-05-09T02:28:56.888Z,14.05
2023-05-09T02:31:28.000Z,13.90
2023-05-09T02:33:55.299Z,12.57
2023-05-09T02:36:22.790Z,11.07
2023-05-09T02:38:49.747Z,14.85
2023-05-09T02:41:17.134Z,10.02
2023-05-09T02:43:43.588Z,17.65
2023-05-09T02:46:10.688Z,13.52
2023-05-09T02:48:37.786Z,10.63
2023-05-09T02:51:04.492Z,12.40
2023-05-09T02:53:31.172Z,11.15
2023-05-09T02:55:58.576Z,12.68
2023-05-09T02:58:25.187Z,12.82
2023-05-09T03:00:51.703Z,13.63
2023-05-09T03:03:23.444Z,11.35
2023-05-09T03:05:49.980Z,12.52
2023-05-09T03:08:16.419Z,10.65
2023-05-09T03:10:42.902Z,15.10
2023-05-09T03:13:09.413Z,10.30
2023-05-09T03:15:35.998Z,11.75
2023-05-09T03:18:02.462Z,13.43
2023-05-09T03:20:28.988Z,12.80
2023-05-09T03:22:55.526Z,12.15
2023-05-09T03:25:22.382Z,14.10
2023-05-09T03:27:48.988Z,13.70
2023-05-09T03:30:16.041Z,11.93
2023-05-09T03:32:42.541Z,16.35
2023-05-09T03:35:09.099Z,12.65
2023-05-09T03:37:35.784Z,13.65
2023-05-09T03:40:02.244Z,14.88
2023-05-09T03:42:28.744Z,14.13
2023-05-09T03:44:55.636Z,14.15
2023-05-09T03:47:22.155Z,13.07
2023-05-09T03:49:49.081Z,14.90
2023-05-09T03:52:15.606Z,17.83
2023-05-09T03:54:42.060Z,15.98
2023-05-09T03:57:08.545Z,15.43
2023-05-09T03:59:35.234Z,15.88
2023-05-09T04:02:01.838Z,14.23
2023-05-09T04:04:28.446Z,13.68
2023-05-09T04:06:55.062Z,14.73
2023-05-09T04:09:22.856Z,17.38
2023-05-09T04:11:49.326Z,13.75
2023-05-09T04:14:15.786Z,14.32
2023-05-09T04:16:42.328Z,15.57
2023-05-09T04:19:08.910Z,19.33
2023-05-09T04:21:35.416Z,17.20
2023-05-09T04:24:01.962Z,15.30
2023-05-09T04:26:28.674Z,20.95
2023-05-09T04:28:55.134Z,17.77
2023-05-09T04:31:21.734Z,15.80
2023-05-09T04:33:48.333Z,15.45
2023-05-09T04:36:14.844Z,14.15
2023-05-09T04:38:41.285Z,19.67
2023-05-09T04:41:07.808Z,12.82
2023-05-09T04:43:34.289Z,18.10
2023-05-09T04:46:00.808Z,14.05
2023-05-09T04:48:27.445Z,20.92
2023-05-09T04:50:53.912Z,13.93
2023-05-09T04:53:20.582Z,12.60
2023-05-09T04:55:47.132Z,16.27
2023-05-09T04:58:13.661Z,19.95
2023-05-09T05:00:40.133Z,13.48
2023-05-09T05:03:07.122Z,17.45
2023-05-09T05:05:36.022Z,16.25
2023-05-09T05:08:03.746Z,16.08
2023-05-09T05:10:30.477Z,14.98
2023-05-09T05:12:57.255Z,14.73
2023-05-09T05:15:23.784Z,17.20
2023-05-09T05:17:50.412Z,15.38
2023-05-09T05:20:19.689Z,16.48
2023-05-09T05:22:46.190Z,17.17
2023-05-09T05:25:13.391Z,19.30
2023-05-09T05:27:40.026Z,22.70
2023-05-09T05:30:07.596Z,20.38
2023-05-09T05:32:34.155Z,15.07
2023-05-09T05:35:02.497Z,14.40
2023-05-09T05:37:29.088Z,13.45
2023-05-09T05:39:55.604Z,13.55
2023-05-09T05:42:22.313Z,17.02
2023-05-09T05:44:48.807Z,16.65
2023-05-09T05:47:15.320Z,15.95
2023-05-09T05:49:42.050Z,14.75
2023-05-09T05:52:08.510Z,13.25
2023-05-09T05:54:34.939Z,12.20
2023-05-09T05:57:01.382Z,13.38
2023-05-09T05:59:27.895Z,13.88
2023-05-09T06:01:54.389Z,13.68
2023-05-09T06:04:21.259Z,12.32
2023-05-09T06:06:47.793Z,13.75
2023-05-09T06:09:14.332Z,17.10
2023-05-09T06:11:43.925Z,17.75
2023-05-09T06:14:10.425Z,14.32
2023-05-09T06:16:36.962Z,11.88
2023-05-09T06:19:03.566Z,15.50
2023-05-09T06:21:30.264Z,12.10
2023-05-09T06:26:26.259Z,13.00
2023-05-09T06:28:52.720Z,10.93
2023-05-09T06:31:19.355Z,12.07
2023-05-09T06:33:45.893Z,14.05
2023-05-09T06:36:12.369Z,12.23
2023-05-09T06:38:38.834Z,13.32
2023-05-09T06:41:05.614Z,16.60
2023-05-09T06:43:32.187Z,14.27
2023-05-09T06:45:59.059Z,13.88
2023-05-09T06:48:25.776Z,16.17
2023-05-09T06:50:52.322Z,18.60
2023-05-09T06:53:18.824Z,15.60
2023-05-09T06:55:45.490Z,13.93
2023-05-09T06:58:12.156Z,14.82
2023-05-09T07:00:39.416Z,16.52
2023-05-09T07:03:07.478Z,15.27
2023-05-09T07:05:34.567Z,13.20
2023-05-09T07:08:01.187Z,15.52
2023-05-09T07:10:31.257Z,17.02
2023-05-09T07:12:58.067Z,13.18
2023-05-09T07:15:39.761Z,15.93
2023-05-09T07:18:07.557Z,11.52
2023-05-09T07:20:34.116Z,11.13
2023-05-09T07:23:00.763Z,11.70
2023-05-09T07:25:27.288Z,15.73
2023-05-09T07:27:53.746Z,16.17
2023-05-09T07:30:20.319Z,13.68
2023-05-09T07:32:46.967Z,12.55
2023-05-09T07:35:13.748Z,17.13
2023-05-09T07:37:40.723Z,13.48
2023-05-09T07:40:08.091Z,12.13
2023-05-09T07:42:34.588Z,13.88
2023-05-09T07:45:01.261Z,15.70
2023-05-09T07:47:27.845Z,13.15
2023-05-09T07:49:54.397Z,12.07
2023-05-09T07:52:21.105Z,9.73
2023-05-09T07:54:47.653Z,13.23
2023-05-09T07:57:14.276Z,13.38
2023-05-09T07:59:41.095Z,14.18
2023-05-09T08:02:07.843Z,11.57
2023-05-09T08:04:37.696Z,12.20
2023-05-09T08:07:04.910Z,13.52
2023-05-09T08:09:31.449Z,11.40
2023-05-09T08:11:58.413Z,14.68
2023-05-09T08:14:25.007Z,11.07
2023-05-09T08:16:51.598Z,13.45
2023-05-09T08:19:18.086Z,9.45
2023-05-09T08:21:44.570Z,15.32
2023-05-09T08:24:11.016Z,9.95
2023-05-09T08:26:37.512Z,16.77
2023-05-09T08:29:03.993Z,8.18
2023-05-09T08:31:30.626Z,10.70
2023-05-09T08:33:57.176Z,10.48
2023-05-09T08:36:23.718Z,12.90
2023-05-09T08:38:50.330Z,12.65
2023-05-09T08:41:17.054Z,7.80
2023-05-09T08:43:44.244Z,8.57
2023-05-09T08:46:11.744Z,13.05
2023-05-09T08:48:39.691Z,10.60
2023-05-09T08:51:07.321Z,10.93
2023-05-09T08:53:34.502Z,8.93
2023-05-09T08:56:01.793Z,10.23
2023-05-09T08:58:28.437Z,13.43
2023-05-09T09:00:55.709Z,10.00
2023-05-09T09:03:23.677Z,7.97
2023-05-09T09:05:51.699Z,8.25
2023-05-09T09:08:18.731Z,8.40
2023-05-09T09:10:48.585Z,7.80
2023-05-09T09:13:17.454Z,6.97
2023-05-09T09:15:46.256Z,11.95
2023-05-09T09:18:18.272Z,9.82
2023-05-09T09:20:56.673Z,10.68
2023-05-09T09:23:25.663Z,10.48
2023-05-09T09:26:04.914Z,7.95
2023-05-09T09:28:31.623Z,11.10
2023-05-09T09:30:58.388Z,7.22
2023-05-09T09:33:26.380Z,10.00
2023-05-09T09:35:55.445Z,9.95
2023-05-09T09:38:24.433Z,10.77
2023-05-09T09:40:55.767Z,9.60
2023-05-09T09:43:32.120Z,8.85
2023-05-09T09:46:06.437Z,6.82
2023-05-09T09:48:36.402Z,11.73
2023-05-09T09:51:10.785Z,8.73
2023-05-09T09:53:41.497Z,8.05
2023-05-09T09:56:08.750Z,12.30
2023-05-09T09:58:35.665Z,6.40
2023-05-09T10:01:14.105Z,8.52
2023-05-09T10:03:46.340Z,7.47
2023-05-09T10:06:16.771Z,8.23
2023-05-09T10:08:47.103Z,7.93
2023-05-09T10:11:14.001Z,6.28
2023-05-09T10:13:40.636Z,6.03
2023-05-09T10:16:08.874Z,7.32
2023-05-09T10:18:36.224Z,5.57
2023-05-09T10:21:05.097Z,5.53
2023-05-09T10:23:34.473Z,7.95
2023-05-09T10:26:16.492Z,7.82
2023-05-09T10:28:46.034Z,9.20
2023-05-09T10:31:27.345Z,9.05
2023-05-09T10:33:55.947Z,7.40
2023-05-09T10:36:25.926Z,6.90
2023-05-09T10:38:55.286Z,8.10
2023-05-09T10:41:22.571Z,8.90
2023-05-09T10:43:49.571Z,8.23
2023-05-09T10:46:16.797Z,5.50
2023-05-09T10:48:44.118Z,11.13
2023-05-09T10:51:11.951Z,8.75
2023-05-09T10:53:46.132Z,9.10
2023-05-09T10:56:33.259Z,6.97
2023-05-09T10:59:00.750Z,10.55
2023-05-09T11:01:39.140Z,7.95
2023-05-09T11:04:14.519Z,6.88
2023-05-09T11:06:52.130Z,6.15
2023-05-09T11:09:39.210Z,7.10
2023-05-09T11:12:08.513Z,6.43
2023-05-09T11:14:37.987Z,7.43
2023-05-09T11:17:06.884Z,9.80
2023-05-09T11:19:36.911Z,13.93
2023-05-09T11:22:21.490Z,13.38
2023-05-09T11:24:50.217Z,5.75
2023-05-09T11:27:28.311Z,9.85
2023-05-09T11:29:56.194Z,9.32
2023-05-09T11:32:28.382Z,6.97
2023-05-09T11:35:15.539Z,6.93
2023-05-09T11:37:47.026Z,5.75
2023-05-09T11:40:15.799Z,4.53
2023-05-09T11:42:44.758Z,3.78
2023-05-09T11:45:12.998Z,6.63
2023-05-09T11:47:40.923Z,5.53
2023-05-09T11:50:09.851Z,7.18
2023-05-09T11:52:40.873Z,4.80
2023-05-09T11:55:12.777Z,3.40
2023-05-09T11:57:41.721Z,5.35
2023-05-09T12:00:10.383Z,6.30
2023-05-09T12:02:37.893Z,3.70
2023-05-09T12:05:13.669Z,4.47
2023-05-09T12:07:41.248Z,4.75
2023-05-09T12:10:13.657Z,6.28
2023-05-09T12:12:48.821Z,7.25
2023-05-09T12:15:17.068Z,5.25
2023-05-09T12:17:45.304Z,4.85
2023-05-09T12:20:12.683Z,4.05
2023-05-09T12:22:43.212Z,4.00
2023-05-09T12:25:12.997Z,4.22
2023-05-09T12:27:41.153Z,8.23
2023-05-09T12:30:10.621Z,5.93
2023-05-09T12:32:39.578Z,8.13
2023-05-09T12:35:10.578Z,5.20
2023-05-09T12:37:37.775Z,4.72
2023-05-09T12:40:04.877Z,5.90
2023-05-09T12:42:32.555Z,5.32
2023-05-09T12:45:01.320Z,7.63
2023-05-09T12:47:29.524Z,4.22
2023-05-09T12:50:00.852Z,6.57
2023-05-09T12:53:01.489Z,4.32
2023-05-09T12:58:01.959Z,6.70
2023-05-09T13:00:48.797Z,6.70
2023-05-09T13:03:41.521Z,4.65
2023-05-09T13:06:13.504Z,4.50
2023-05-09T13:08:40.929Z,6.25
2023-05-09T13:11:16.440Z,5.00
2023-05-09T13:13:43.793Z,5.70
2023-05-09T13:16:11.715Z,6.50
2023-05-09T13:18:39.916Z,4.75
2023-05-09T13:21:09.296Z,6.43
2023-05-09T13:23:35.780Z,4.78
2023-05-09T13:26:02.212Z,5.57
2023-05-09T13:28:28.990Z,8.85
2023-05-09T13:30:55.516Z,8.45
2023-05-09T13:33:26.017Z,5.32
2023-05-09T13:35:53.271Z,9.33
2023-05-09T13:38:20.022Z,7.38
2023-05-09T13:40:46.570Z,5.40
2023-05-09T13:43:13.021Z,6.15
2023-05-09T13:45:39.473Z,8.32
2023-05-09T13:48:06.329Z,7.78
2023-05-09T13:50:32.823Z,10.13
2023-05-09T13:52:59.315Z,10.13
2023-05-09T13:55:30.013Z,5.20
2023-05-09T13:57:56.960Z,7.50
2023-05-09T14:00:26.462Z,6.70
2023-05-09T14:02:53.104Z,6.55
2023-05-09T14:05:19.844Z,5.90
2023-05-09T14:07:46.419Z,5.40
2023-05-09T14:10:13.040Z,5.47
2023-05-09T14:12:40.057Z,5.10
2023-05-09T14:15:08.258Z,6.20
2023-05-09T14:17:34.905Z,6.03
2023-05-09T14:20:01.478Z,8.02
2023-05-09T14:22:28.227Z,9.13
2023-05-09T14:24:56.554Z,8.50
2023-05-09T14:27:23.156Z,6.05
2023-05-09T14:29:49.660Z,6.68
2023-05-09T14:32:16.168Z,6.28
2023-05-09T14:34:42.769Z,7.45
2023-05-09T14:37:13.640Z,5.93
2023-05-09T14:39:42.123Z,7.73
2023-05-09T14:42:11.376Z,7.22
2023-05-09T14:44:38.699Z,5.28
2023-05-09T14:47:05.377Z,4.72
2023-05-09T14:49:32.486Z,4.35
2023-05-09T14:51:59.167Z,6.70
2023-05-09T14:54:26.064Z,12.35
2023-05-09T14:56:52.621Z,5.25
2023-05-09T14:59:19.186Z,5.30
2023-05-09T15:01:46.230Z,3.85
2023-05-09T15:04:12.852Z,5.88
2023-05-09T15:06:39.856Z,10.30
2023-05-09T15:09:06.437Z,4.32
2023-05-09T15:11:43.761Z,6.63
2023-05-09T15:14:14.003Z,5.15
2023-05-09T15:16:40.672Z,6.88
2023-05-09T15:19:08.204Z,5.90
2023-05-09T15:21:35.021Z,5.45
2023-05-09T15:24:02.364Z,7.45
2023-05-09T15:26:29.980Z,10.00
2023-05-09T15:28:56.551Z,4.70
2023-05-09T15:31:24.060Z,6.72
2023-05-09T15:33:50.882Z,11.77
2023-05-09T15:36:17.397Z,10.80
2023-05-09T15:38:48.293Z,5.30
2023-05-09T15:41:15.615Z,9.80
2023-05-09T15:43:42.103Z,16.15
2023-05-09T15:46:08.619Z,11.93
2023-05-09T15:48:35.104Z,9.10
2023-05-09T15:51:02.684Z,6.30
2023-05-09T15:53:29.395Z,8.25
2023-05-09T15:55:57.017Z,10.57
2023-05-09T15:58:23.550Z,10.57
2023-05-09T16:00:50.145Z,7.90
2023-05-09T16:03:16.892Z,6.50
2023-05-09T16:05:43.839Z,7.03
2023-05-09T16:08:10.446Z,7.22
2023-05-09T16:10:36.929Z,8.70
2023-05-09T16:13:03.927Z,7.05
2023-05-09T16:15:30.505Z,11.13
2023-05-09T16:17:56.965Z,5.22
2023-05-09T16:20:23.531Z,6.10
2023-05-09T16:22:50.013Z,4.93
2023-05-09T16:25:16.726Z,8.75
2023-05-09T16:27:46.451Z,7.63
2023-05-09T16:30:13.862Z,8.60
2023-05-09T16:32:40.601Z,7.15
2023-05-09T16:35:07.690Z,11.18
2023-05-09T16:37:35.668Z,5.80
2023-05-09T16:40:02.865Z,7.70
2023-05-09T16:42:29.402Z,6.40
2023-05-09T16:44:56.064Z,10.48
2023-05-09T16:47:22.722Z,11.20
2023-05-09T16:49:49.215Z,4.25
2023-05-09T16:52:15.692Z,7.75
2023-05-09T16:54:42.187Z,11.43
2023-05-09T16:57:08.742Z,7.43
2023-05-09T16:59:35.322Z,5.05
2023-05-09T17:02:02.166Z,10.20
2023-05-09T17:04:29.343Z,8.73
2023-05-09T17:06:56.001Z,6.82
2023-05-09T17:09:22.579Z,4.90
2023-05-09T17:11:49.078Z,6.65
2023-05-09T17:14:15.552Z,8.15
2023-05-09T17:16:42.090Z,5.78
2023-05-09T17:19:08.579Z,6.35
2023-05-09T17:21:35.424Z,9.68
2023-05-09T17:24:02.159Z,8.32
2023-05-09T17:26:29.588Z,8.13
2023-05-09T17:28:56.185Z,9.07
2023-05-09T17:31:22.809Z,6.45
2023-05-09T17:33:49.712Z,8.10
2023-05-09T17:36:16.311Z,5.68
2023-05-09T17:38:43.148Z,6.30
2023-05-09T17:41:09.689Z,7.22
2023-05-09T17:43:36.270Z,9.40
2023-05-09T17:46:03.690Z,9.85
2023-05-09T17:48:30.389Z,6.97
2023-05-09T17:50:56.897Z,7.90
2023-05-09T17:53:23.639Z,6.05
2023-05-09T17:55:50.704Z,4.32
2023-05-09T17:58:17.203Z,9.60
2023-05-09T18:00:44.585Z,11.35
2023-05-09T18:03:11.163Z,8.70
2023-05-09T18:05:37.956Z,5.15
2023-05-09T18:08:04.764Z,9.18
2023-05-09T18:10:31.306Z,11.27
2023-05-09T18:12:57.907Z,6.35
2023-05-09T18:15:25.495Z,8.95
2023-05-09T18:17:53.809Z,8.02
2023-05-09T18:20:23.586Z,9.45
2023-05-09T18:22:50.063Z,7.38
2023-05-09T18:25:17.203Z,9.23
2023-05-09T18:27:43.711Z,6.80
2023-05-09T18:30:10.542Z,6.88
2023-05-09T18:32:37.058Z,7.00
2023-05-09T18:35:04.075Z,6.75
2023-05-09T18:37:30.851Z,3.70
2023-05-09T18:39:57.348Z,7.10
2023-05-09T18:42:23.861Z,6.88
2023-05-09T18:44:50.539Z,7.82
2023-05-09T18:47:17.151Z,10.73
2023-05-09T18:49:43.841Z,6.43
2023-05-09T18:52:10.730Z,5.63
2023-05-09T18:54:38.122Z,7.97
2023-05-09T18:57:04.622Z,8.43
2023-05-09T18:59:31.832Z,5.63
2023-05-09T19:01:58.278Z,8.27
2023-05-09T19:04:25.343Z,4.07
2023-05-09T19:06:51.884Z,4.70
2023-05-09T19:09:18.420Z,7.07
2023-05-09T19:11:45.121Z,5.95
2023-05-09T19:14:14.196Z,4.88
2023-05-09T19:16:40.670Z,12.40
2023-05-09T19:19:07.643Z,7.28
2023-05-09T19:21:35.516Z,4.78
2023-05-09T19:24:04.243Z,7.97
2023-05-09T19:26:30.719Z,8.57
2023-05-09T19:28:57.252Z,6.65
2023-05-09T19:31:25.469Z,3.22
2023-05-09T19:33:52.122Z,5.43
2023-05-09T19:36:18.573Z,6.50
2023-05-09T19:38:45.589Z,5.55
2023-05-09T19:41:13.851Z,5.82
2023-05-09T19:43:40.549Z,7.03
2023-05-09T19:46:09.963Z,7.32
2023-05-09T19:48:36.562Z,6.53
2023-05-09T19:51:03.973Z,5.72
2023-05-09T19:53:33.685Z,3.47
2023-05-09T19:56:00.152Z,8.10
2023-05-09T19:58:27.633Z,6.85
2023-05-09T20:00:54.134Z,9.65
2023-05-09T20:03:20.704Z,6.07
2023-05-09T20:05:50.918Z,5.55
2023-05-09T20:08:17.365Z,5.43
2023-05-09T20:10:44.013Z,6.65
2023-05-09T20:13:10.668Z,5.32
2023-05-09T20:15:37.231Z,7.60
2023-05-09T20:18:05.755Z,4.50
2023-05-09T20:20:32.590Z,5.53
2023-05-09T20:23:02.102Z,6.05
2023-05-09T20:25:28.749Z,5.80
2023-05-09T20:27:57.685Z,9.63
2023-05-09T20:30:26.992Z,5.65
2023-05-09T20:32:53.641Z,5.93
2023-05-09T20:35:23.211Z,6.53
2023-05-09T20:37:49.746Z,4.38
2023-05-09T20:40:16.462Z,6.13
2023-05-09T20:42:43.631Z,6.18
2023-05-09T20:45:10.371Z,8.13
2023-05-09T20:47:36.936Z,5.25
2023-05-09T20:50:03.649Z,8.18
2023-05-09T20:52:30.227Z,6.93
2023-05-09T20:54:56.827Z,6.20
2023-05-09T20:57:23.310Z,4.82
2023-05-09T20:59:52.744Z,6.03
2023-05-09T21:02:19.224Z,4.72
2023-05-09T21:04:45.729Z,6.25
2023-05-09T21:07:12.427Z,8.65
2023-05-09T21:09:38.975Z,7.53
2023-05-09T21:12:05.734Z,8.38
2023-05-09T21:14:32.260Z,7.72
2023-05-09T21:16:58.813Z,8.93
2023-05-09T21:19:25.455Z,7.95
2023-05-09T21:21:52.242Z,4.40
2023-05-09T21:24:18.705Z,4.60
2023-05-09T21:26:45.245Z,9.73
2023-05-09T21:29:11.705Z,6.63
2023-05-09T21:31:38.377Z,9.40
2023-05-09T21:34:09.903Z,5.68
2023-05-09T21:36:42.954Z,8.45
2023-05-09T21:39:13.894Z,6.50
2023-05-09T21:41:42.934Z,9.47
2023-05-09T21:44:11.105Z,6.35
2023-05-09T21:46:37.863Z,5.47
2023-05-09T21:49:04.338Z,9.82
2023-05-09T21:51:31.570Z,8.02
2023-05-09T21:53:58.585Z,8.52
2023-05-09T21:56:25.096Z,7.07
2023-05-09T21:58:55.011Z,8.55
2023-05-09T22:01:21.664Z,7.70
2023-05-09T22:03:50.989Z,9.18
2023-05-09T22:06:17.536Z,9.40
2023-05-09T22:08:44.021Z,9.80
2023-05-09T22:11:11.489Z,10.50
2023-05-09T22:13:39.248Z,7.90
2023-05-09T22:16:07.120Z,8.25
2023-05-09T22:18:33.653Z,8.90
2023-05-09T22:21:00.506Z,10.40
2023-05-09T22:23:27.283Z,10.55
2023-05-09T22:25:57.182Z,7.25
2023-05-09T22:28:23.680Z,10.70
2023-05-09T22:30:50.159Z,10.88
2023-05-09T22:33:16.696Z,12.18
2023-05-09T22:35:43.222Z,9.27
2023-05-09T22:38:16.543Z,7.20
2023-05-09T22:40:43.548Z,7.53
2023-05-09T22:43:10.791Z,7.05
2023-05-09T22:45:37.660Z,7.28
2023-05-09T22:48:04.425Z,10.32
2023-05-09T22:50:30.984Z,12.18
2023-05-09T22:53:02.050Z,10.73
2023-05-09T22:55:28.670Z,8.20
2023-05-09T22:57:55.230Z,7.47
2023-05-09T23:00:24.464Z,9.40
2023-05-09T23:02:51.025Z,10.27
2023-05-09T23:05:20.646Z,8.82
2023-05-09T23:07:49.316Z,15.68
2023-05-09T23:10:18.835Z,13.90
2023-05-09T23:12:45.617Z,11.43
2023-05-09T23:15:12.122Z,11.25
2023-05-09T23:17:41.637Z,7.50
2023-05-09T23:20:08.726Z,9.00
2023-05-09T23:22:40.650Z,8.35
2023-05-09T23:27:33.885Z,8.60
2023-05-09T23:30:00.338Z,11.23
2023-05-09T23:32:26.938Z,9.82
2023-05-09T23:34:53.494Z,8.52
2023-05-09T23:37:19.999Z,12.90
2023-05-09T23:39:50.746Z,7.13
2023-05-09T23:42:17.220Z,16.90
2023-05-09T23:44:43.902Z,7.43
2023-05-09T23:47:10.385Z,10.73
2023-05-09T23:49:36.951Z,11.68
2023-05-09T23:52:03.461Z,7.65
2023-05-09T23:54:30.135Z,10.48
2023-05-09T23:57:00.158Z,8.82
2023-05-09T23:59:33.154Z,12.52
